createdAt,value
2023-02-05T00:00:18.255Z,93.39
2023-02-05T00:01:21.355Z,93.46
2023-02-05T00:02:24.698Z,93.43
2023-02-05T00:04:00.609Z,93.54
2023-02-05T00:05:03.692Z,93.43
2023-02-05T00:06:06.978Z,93.53
2023-02-05T00:07:42.455Z,93.72
2023-02-05T00:08:45.587Z,93.90
2023-02-05T00:09:48.547Z,93.84
2023-02-05T00:11:23.791Z,93.64
2023-02-05T00:12:26.775Z,93.64
2023-02-05T00:13:30.042Z,93.57
2023-02-05T00:15:05.403Z,93.58
2023-02-05T00:16:08.626Z,93.52
2023-02-05T00:17:12.057Z,93.54
2023-02-05T00:18:47.253Z,93.68
2023-02-05T00:19:50.586Z,93.68
2023-02-05T00:20:53.784Z,93.68
2023-02-05T00:22:30.591Z,93.73
2023-02-05T00:23:33.703Z,93.70
2023-02-05T00:24:36.688Z,93.71
2023-02-05T00:26:12.371Z,93.67
2023-02-05T00:27:15.488Z,93.64
2023-02-05T00:28:18.547Z,93.62
2023-02-05T00:29:53.854Z,93.67
2023-02-05T00:30:57.298Z,93.64
2023-02-05T00:32:01.374Z,93.65
2023-02-05T00:33:36.728Z,93.69
2023-02-05T00:34:39.996Z,93.70
2023-02-05T00:35:43.378Z,93.70
2023-02-05T00:37:18.381Z,93.69
2023-02-05T00:38:21.692Z,93.81
2023-02-05T00:39:24.804Z,93.91
2023-02-05T00:40:59.741Z,93.87
2023-02-05T00:42:03.084Z,93.85
2023-02-05T00:43:06.142Z,93.97
2023-02-05T00:44:41.643Z,93.93
2023-02-05T00:45:44.974Z,93.94
2023-02-05T00:46:48.585Z,93.92
2023-02-05T00:48:23.929Z,93.94
2023-02-05T00:49:26.932Z,93.96
2023-02-05T00:50:29.972Z,93.94
2023-02-05T00:52:05.365Z,94.07
2023-02-05T00:53:08.657Z,94.01
2023-02-05T00:54:12.034Z,93.96
2023-02-05T00:55:47.079Z,93.99
2023-02-05T00:56:50.823Z,93.99
2023-02-05T00:57:54.095Z,94.07
2023-02-05T00:59:29.779Z,94.08
2023-02-05T01:00:17.817Z,94.10
2023-02-05T01:01:20.961Z,94.20
2023-02-05T01:02:24.851Z,94.18
2023-02-05T01:04:00.156Z,94.22
2023-02-05T01:05:03.324Z,94.11
2023-02-05T01:06:06.531Z,94.11
2023-02-05T01:07:42.166Z,94.26
2023-02-05T01:08:45.483Z,94.25
2023-02-05T01:09:48.400Z,94.32
2023-02-05T01:11:23.190Z,94.27
2023-02-05T01:12:26.138Z,94.41
2023-02-05T01:13:29.267Z,94.38
2023-02-05T01:15:04.686Z,94.33
2023-02-05T01:16:07.952Z,94.45
2023-02-05T01:17:11.530Z,94.41
2023-02-05T01:18:46.860Z,94.45
2023-02-05T01:19:49.828Z,94.48
2023-02-05T01:20:53.215Z,94.51
2023-02-05T01:22:28.139Z,94.55
2023-02-05T01:23:31.282Z,94.58
2023-02-05T01:24:34.476Z,94.65
2023-02-05T01:26:09.899Z,94.57
2023-02-05T01:27:13.183Z,94.77
2023-02-05T01:28:16.501Z,94.71
2023-02-05T01:29:51.848Z,94.81
2023-02-05T01:30:55.387Z,94.80
2023-02-05T01:31:59.316Z,94.83
2023-02-05T01:33:34.236Z,94.86
2023-02-05T01:34:37.463Z,94.76
2023-02-05T01:35:41.334Z,95.02
2023-02-05T01:37:16.504Z,95.01
2023-02-05T01:38:19.738Z,95.03
2023-02-05T01:39:23.041Z,95.02
2023-02-05T01:40:58.240Z,95.06
2023-02-05T01:42:01.327Z,95.09
2023-02-05T01:43:04.429Z,95.14
2023-02-05T01:44:39.350Z,95.18
2023-02-05T01:45:42.521Z,95.22
2023-02-05T01:46:45.740Z,95.24
2023-02-05T01:48:21.071Z,95.22
2023-02-05T01:49:24.256Z,95.43
2023-02-05T01:50:27.455Z,95.48
2023-02-05T01:52:02.438Z,95.52
2023-02-05T01:53:05.391Z,95.39
2023-02-05T01:54:08.483Z,95.41
2023-02-05T01:55:43.568Z,95.62
2023-02-05T01:56:46.918Z,95.68
2023-02-05T01:57:49.797Z,95.62
2023-02-05T01:59:24.768Z,95.51
2023-02-05T02:00:18.180Z,95.42
2023-02-05T02:01:21.463Z,95.48
2023-02-05T02:02:24.994Z,95.66
2023-02-05T02:04:00.147Z,95.66
2023-02-05T02:05:03.365Z,95.77
2023-02-05T02:06:06.728Z,95.60
2023-02-05T02:07:42.121Z,95.80
2023-02-05T02:08:45.308Z,95.83
2023-02-05T02:09:48.582Z,95.89
2023-02-05T02:11:23.846Z,95.99
2023-02-05T02:12:27.060Z,95.92
2023-02-05T02:13:30.307Z,95.99
2023-02-05T02:15:05.955Z,96.02
2023-02-05T02:16:09.234Z,96.06
2023-02-05T02:17:13.068Z,95.92
2023-02-05T02:18:48.108Z,95.96
2023-02-05T02:19:51.351Z,96.07
2023-02-05T02:20:54.663Z,96.08
2023-02-05T02:22:29.724Z,95.99
2023-02-05T02:23:32.933Z,95.97
2023-02-05T02:24:36.212Z,95.92
2023-02-05T02:26:11.618Z,95.95
2023-02-05T02:27:14.992Z,95.97
2023-02-05T02:28:18.262Z,95.90
2023-02-05T02:29:53.571Z,95.89
2023-02-05T02:30:56.850Z,95.99
2023-02-05T02:32:00.555Z,96.06
2023-02-05T02:33:35.735Z,96.03
2023-02-05T02:34:38.739Z,96.14
2023-02-05T02:35:42.258Z,96.17
2023-02-05T02:37:17.551Z,96.26
2023-02-05T02:38:20.939Z,96.26
2023-02-05T02:39:23.928Z,96.35
2023-02-05T02:40:59.282Z,96.49
2023-02-05T02:42:02.602Z,96.61
2023-02-05T02:43:05.784Z,96.55
2023-02-05T02:44:41.239Z,96.52
2023-02-05T02:45:44.488Z,96.57
2023-02-05T02:46:47.975Z,96.70
2023-02-05T02:48:23.501Z,96.73
2023-02-05T02:49:26.741Z,96.76
2023-02-05T02:50:29.828Z,96.87
2023-02-05T02:52:04.905Z,96.79
2023-02-05T02:53:08.499Z,96.86
2023-02-05T02:54:11.625Z,96.92
2023-02-05T02:55:49.388Z,97.08
2023-02-05T02:56:52.618Z,97.20
2023-02-05T02:57:55.732Z,97.17
2023-02-05T02:59:31.002Z,97.33
2023-02-05T03:00:17.958Z,97.38
2023-02-05T03:01:21.490Z,97.31
2023-02-05T03:02:34.399Z,97.27
2023-02-05T03:04:09.496Z,97.21
2023-02-05T03:05:12.900Z,97.38
2023-02-05T03:06:17.383Z,97.33
2023-02-05T03:07:52.591Z,97.47
2023-02-05T03:08:55.734Z,97.34
2023-02-05T03:09:58.905Z,97.44
2023-02-05T03:11:34.751Z,97.39
2023-02-05T03:12:37.834Z,97.37
2023-02-05T03:13:41.234Z,97.41
2023-02-05T03:15:16.340Z,97.35
2023-02-05T03:16:19.871Z,97.34
2023-02-05T03:17:23.643Z,97.35
2023-02-05T03:18:58.653Z,97.24
2023-02-05T03:20:02.041Z,97.54
2023-02-05T03:21:05.366Z,97.50
2023-02-05T03:22:40.619Z,97.46
2023-02-05T03:23:44.000Z,97.43
2023-02-05T03:24:47.196Z,97.39
2023-02-05T03:26:22.771Z,97.43
2023-02-05T03:27:25.794Z,97.46
2023-02-05T03:28:29.290Z,97.46
2023-02-05T03:30:04.750Z,97.47
2023-02-05T03:31:08.423Z,97.49
2023-02-05T03:32:11.858Z,97.44
2023-02-05T03:33:47.041Z,97.43
2023-02-05T03:34:50.385Z,97.38
2023-02-05T03:35:53.837Z,97.38
2023-02-05T03:37:29.354Z,97.39
2023-02-05T03:38:32.441Z,97.43
2023-02-05T03:39:35.765Z,97.42
2023-02-05T03:41:10.801Z,97.58
2023-02-05T03:42:13.826Z,97.52
2023-02-05T03:43:17.141Z,97.57
2023-02-05T03:44:52.095Z,97.63
2023-02-05T03:45:55.443Z,97.72
2023-02-05T03:46:58.855Z,97.76
2023-02-05T03:48:34.197Z,97.78
2023-02-05T03:49:37.356Z,97.73
2023-02-05T03:50:40.271Z,97.70
2023-02-05T03:52:15.409Z,97.75
2023-02-05T03:53:18.604Z,97.73
2023-02-05T03:54:21.788Z,97.78
2023-02-05T03:55:56.992Z,97.83
2023-02-05T03:57:00.411Z,97.82
2023-02-05T03:58:03.787Z,97.83
2023-02-05T03:59:38.776Z,97.85
2023-02-05T04:00:17.603Z,97.85
2023-02-05T04:01:20.903Z,97.95
2023-02-05T04:02:24.741Z,97.94
2023-02-05T04:04:00.313Z,97.94
2023-02-05T04:05:03.438Z,97.82
2023-02-05T04:06:06.430Z,97.82
2023-02-05T04:07:41.705Z,97.80
2023-02-05T04:08:44.930Z,97.83
2023-02-05T04:09:48.246Z,97.76
2023-02-05T04:11:23.087Z,97.74
2023-02-05T04:12:26.327Z,97.72
2023-02-05T04:13:29.454Z,97.70
2023-02-05T04:15:04.482Z,97.73
2023-02-05T04:16:07.667Z,97.70
2023-02-05T04:17:10.871Z,97.68
2023-02-05T04:18:46.248Z,97.67
2023-02-05T04:19:49.022Z,97.68
2023-02-05T04:20:52.132Z,97.68
2023-02-05T04:22:27.328Z,97.71
2023-02-05T04:23:30.620Z,97.72
2023-02-05T04:24:33.823Z,97.68
2023-02-05T04:26:09.038Z,97.65
2023-02-05T04:27:12.092Z,97.65
2023-02-05T04:28:15.389Z,97.66
2023-02-05T04:29:51.082Z,97.64
2023-02-05T04:30:54.937Z,97.62
2023-02-05T04:31:58.600Z,97.58
2023-02-05T04:33:33.688Z,97.57
2023-02-05T04:34:36.909Z,97.56
2023-02-05T04:35:40.664Z,97.57
2023-02-05T04:37:15.800Z,97.58
2023-02-05T04:38:18.830Z,97.57
2023-02-05T04:39:22.145Z,97.50
2023-02-05T04:40:57.536Z,97.48
2023-02-05T04:42:00.579Z,97.46
2023-02-05T04:43:03.688Z,97.43
2023-02-05T04:44:38.914Z,97.36
2023-02-05T04:45:42.600Z,97.34
2023-02-05T04:46:46.288Z,97.30
2023-02-05T04:48:21.843Z,97.32
2023-02-05T04:49:25.097Z,97.33
2023-02-05T04:50:28.226Z,97.32
2023-02-05T04:52:03.410Z,97.28
2023-02-05T04:53:06.428Z,97.25
2023-02-05T04:54:09.646Z,97.27
2023-02-05T04:55:44.601Z,97.29
2023-02-05T04:56:47.846Z,97.27
2023-02-05T04:57:52.661Z,97.27
2023-02-05T04:59:28.090Z,97.29
2023-02-05T05:00:18.272Z,97.24
2023-02-05T05:01:21.894Z,97.23
2023-02-05T05:02:25.528Z,97.19
2023-02-05T05:04:01.288Z,97.25
2023-02-05T05:05:47.120Z,97.23
2023-02-05T05:06:50.620Z,97.24
2023-02-05T05:07:53.956Z,97.27
2023-02-05T05:09:29.596Z,97.27
2023-02-05T05:10:33.360Z,97.29
2023-02-05T05:11:36.798Z,97.31
2023-02-05T05:13:12.384Z,97.30
2023-02-05T05:14:15.644Z,97.28
2023-02-05T05:15:19.191Z,97.33
2023-02-05T05:16:55.883Z,97.37
2023-02-05T05:17:59.037Z,97.39
2023-02-05T05:19:02.372Z,97.38
2023-02-05T05:20:37.726Z,97.36
2023-02-05T05:21:41.248Z,97.30
2023-02-05T05:22:44.522Z,97.40
2023-02-05T05:24:19.742Z,97.44
2023-02-05T05:25:22.935Z,97.46
2023-02-05T05:26:26.791Z,97.44
2023-02-05T05:28:02.184Z,97.45
2023-02-05T05:29:05.651Z,97.48
2023-02-05T05:30:08.966Z,97.51
2023-02-05T05:31:44.648Z,97.48
2023-02-05T05:32:48.472Z,97.47
2023-02-05T05:33:51.786Z,97.49
2023-02-05T05:35:27.312Z,97.51
2023-02-05T05:36:31.302Z,97.53
2023-02-05T05:37:34.741Z,97.59
2023-02-05T05:39:10.030Z,97.59
2023-02-05T05:40:13.336Z,97.60
2023-02-05T05:41:16.607Z,97.65
2023-02-05T05:42:51.824Z,97.62
2023-02-05T05:43:55.092Z,97.61
2023-02-05T05:44:58.525Z,97.63
2023-02-05T05:46:34.307Z,97.62
2023-02-05T05:47:37.843Z,97.65
2023-02-05T05:48:41.153Z,97.68
2023-02-05T05:50:16.399Z,97.65
2023-02-05T05:51:19.793Z,97.63
2023-02-05T05:52:22.997Z,97.61
2023-02-05T05:54:02.083Z,97.64
2023-02-05T05:55:05.315Z,97.65
2023-02-05T05:56:08.632Z,97.65
2023-02-05T05:57:44.157Z,97.63
2023-02-05T05:58:47.960Z,97.62
2023-02-05T05:59:51.371Z,97.66
2023-02-05T06:00:18.067Z,97.66
2023-02-05T06:01:21.427Z,97.65
2023-02-05T06:02:24.761Z,97.64
2023-02-05T06:04:02.182Z,97.60
2023-02-05T06:05:07.147Z,97.56
2023-02-05T06:06:10.550Z,97.53
2023-02-05T06:07:45.958Z,97.58
2023-02-05T06:08:49.208Z,97.50
2023-02-05T06:09:52.459Z,97.60
2023-02-05T06:11:27.689Z,97.57
2023-02-05T06:12:30.869Z,97.58
2023-02-05T06:13:33.772Z,97.54
2023-02-05T06:15:09.043Z,97.37
2023-02-05T06:16:12.859Z,97.14
2023-02-05T06:17:16.230Z,96.90
2023-02-05T06:18:51.745Z,96.58
2023-02-05T06:19:55.152Z,96.68
2023-02-05T06:20:58.319Z,96.67
2023-02-05T06:22:33.649Z,96.46
2023-02-05T06:23:36.849Z,96.44
2023-02-05T06:24:40.070Z,96.40
2023-02-05T06:26:15.938Z,96.32
2023-02-05T06:27:19.307Z,96.15
2023-02-05T06:28:23.022Z,95.92
2023-02-05T06:29:58.471Z,95.77
2023-02-05T06:31:01.824Z,95.81
2023-02-05T06:32:06.252Z,95.83
2023-02-05T06:33:45.060Z,95.78
2023-02-05T06:34:48.449Z,95.72
2023-02-05T06:35:51.453Z,95.74
2023-02-05T06:37:46.108Z,95.59
2023-02-05T06:38:50.309Z,95.68
2023-02-05T06:39:53.426Z,95.58
2023-02-05T06:41:28.914Z,95.49
2023-02-05T06:42:32.130Z,95.49
2023-02-05T06:43:35.567Z,95.48
2023-02-05T06:45:11.131Z,95.41
2023-02-05T06:46:14.847Z,95.42
2023-02-05T06:47:18.334Z,95.20
2023-02-05T06:48:53.488Z,95.16
2023-02-05T06:49:56.754Z,95.10
2023-02-05T06:51:00.017Z,95.10
2023-02-05T06:52:35.508Z,95.07
2023-02-05T06:53:38.903Z,94.90
2023-02-05T06:54:42.130Z,94.86
2023-02-05T06:56:17.932Z,94.60
2023-02-05T06:57:20.925Z,94.45
2023-02-05T06:58:24.184Z,94.56
2023-02-05T06:59:59.628Z,94.54
2023-02-05T07:00:17.573Z,94.54
2023-02-05T07:01:21.930Z,94.30
2023-02-05T07:02:25.459Z,94.48
2023-02-05T07:04:01.278Z,94.21
2023-02-05T07:05:04.609Z,94.43
2023-02-05T07:06:08.063Z,94.39
2023-02-05T07:07:43.403Z,94.45
2023-02-05T07:08:47.549Z,94.46
2023-02-05T07:09:50.699Z,94.49
2023-02-05T07:11:25.923Z,94.43
2023-02-05T07:12:29.186Z,94.73
2023-02-05T07:13:32.575Z,94.61
2023-02-05T07:15:07.827Z,94.69
2023-02-05T07:16:11.253Z,94.67
2023-02-05T07:17:14.405Z,94.61
2023-02-05T07:18:49.858Z,94.64
2023-02-05T07:19:53.345Z,94.53
2023-02-05T07:20:56.373Z,94.70
2023-02-05T07:22:31.645Z,94.67
2023-02-05T07:23:34.953Z,94.64
2023-02-05T07:24:38.264Z,94.56
2023-02-05T07:26:17.117Z,94.59
2023-02-05T07:27:20.280Z,94.62
2023-02-05T07:28:23.883Z,94.66
2023-02-05T07:29:59.233Z,94.53
2023-02-05T07:31:05.852Z,94.55
2023-02-05T07:32:10.175Z,94.61
2023-02-05T07:33:45.301Z,94.50
2023-02-05T07:34:48.611Z,94.43
2023-02-05T07:35:51.841Z,94.49
2023-02-05T07:37:27.296Z,94.38
2023-02-05T07:38:30.796Z,94.58
2023-02-05T07:39:34.189Z,94.34
2023-02-05T07:41:09.130Z,94.44
2023-02-05T07:42:12.414Z,94.49
2023-02-05T07:43:17.907Z,94.52
2023-02-05T07:44:53.395Z,94.50
2023-02-05T07:45:56.589Z,94.31
2023-02-05T07:47:00.113Z,94.12
2023-02-05T07:48:35.944Z,94.15
2023-02-05T07:49:39.028Z,94.22
2023-02-05T07:50:42.533Z,94.16
2023-02-05T07:52:18.614Z,94.13
2023-02-05T07:53:22.076Z,94.25
2023-02-05T07:54:25.325Z,94.24
2023-02-05T07:56:00.689Z,94.22
2023-02-05T07:57:06.585Z,94.08
2023-02-05T07:58:09.897Z,94.21
2023-02-05T07:59:45.085Z,94.24
2023-02-05T08:00:18.572Z,94.22
2023-02-05T08:01:22.013Z,94.24
2023-02-05T08:02:25.411Z,94.23
2023-02-05T08:04:03.732Z,94.09
2023-02-05T08:05:07.087Z,94.11
2023-02-05T08:06:10.293Z,94.19
2023-02-05T08:07:45.415Z,94.15
2023-02-05T08:08:48.726Z,94.16
2023-02-05T08:09:52.160Z,94.16
2023-02-05T08:11:27.339Z,94.14
2023-02-05T08:12:30.459Z,94.05
2023-02-05T08:13:33.797Z,94.10
2023-02-05T08:15:09.421Z,94.11
2023-02-05T08:16:13.058Z,94.14
2023-02-05T08:17:16.745Z,94.07
2023-02-05T08:18:51.845Z,94.05
2023-02-05T08:19:55.102Z,94.10
2023-02-05T08:20:58.482Z,93.83
2023-02-05T08:22:33.917Z,93.93
2023-02-05T08:23:37.408Z,93.88
2023-02-05T08:24:40.782Z,93.94
2023-02-05T08:26:16.886Z,94.06
2023-02-05T08:27:20.300Z,94.00
2023-02-05T08:28:23.948Z,94.00
2023-02-05T08:29:59.505Z,93.89
2023-02-05T08:31:02.815Z,94.05
2023-02-05T08:32:06.309Z,94.04
2023-02-05T08:33:41.835Z,94.00
2023-02-05T08:34:45.057Z,94.00
2023-02-05T08:35:48.605Z,93.84
2023-02-05T08:37:24.190Z,94.05
2023-02-05T08:38:27.639Z,94.03
2023-02-05T08:39:30.915Z,94.20
2023-02-05T08:41:06.517Z,94.15
2023-02-05T08:42:09.747Z,94.10
2023-02-05T08:43:12.964Z,94.04
2023-02-05T08:44:48.608Z,94.03
2023-02-05T08:45:52.233Z,94.11
2023-02-05T08:46:56.369Z,94.23
2023-02-05T08:48:31.766Z,94.13
2023-02-05T08:49:35.273Z,93.96
2023-02-05T08:50:39.623Z,93.94
2023-02-05T08:52:14.862Z,93.97
2023-02-05T08:53:18.339Z,93.85
2023-02-05T08:54:21.713Z,93.91
2023-02-05T08:55:56.905Z,93.60
2023-02-05T08:57:01.006Z,93.72
2023-02-05T08:58:04.415Z,93.61
2023-02-05T08:59:39.892Z,93.32
2023-02-05T09:00:18.325Z,93.32
2023-02-05T09:01:21.846Z,93.29
2023-02-05T09:02:28.439Z,92.88
2023-02-05T09:04:05.152Z,92.49
2023-02-05T09:05:15.085Z,92.63
2023-02-05T09:06:18.844Z,92.31
2023-02-05T09:07:54.188Z,92.39
2023-02-05T09:08:57.657Z,92.23
2023-02-05T09:10:01.219Z,92.10
2023-02-05T09:11:36.565Z,92.28
2023-02-05T09:12:40.179Z,91.82
2023-02-05T09:13:43.318Z,91.75
2023-02-05T09:15:18.888Z,91.55
2023-02-05T09:16:22.704Z,91.63
2023-02-05T09:17:26.296Z,91.64
2023-02-05T09:19:01.676Z,91.69
2023-02-05T09:20:04.888Z,91.62
2023-02-05T09:21:08.373Z,91.28
2023-02-05T09:22:46.270Z,91.75
2023-02-05T09:23:49.389Z,91.57
2023-02-05T09:24:52.726Z,91.31
2023-02-05T09:26:28.550Z,91.54
2023-02-05T09:27:31.749Z,91.36
2023-02-05T09:28:35.116Z,91.31
2023-02-05T09:30:10.668Z,90.89
2023-02-05T09:31:14.452Z,90.39
2023-02-05T09:32:18.629Z,90.84
2023-02-05T09:33:53.775Z,90.19
2023-02-05T09:34:57.121Z,90.58
2023-02-05T09:36:00.369Z,90.30
2023-02-05T09:37:35.822Z,89.82
2023-02-05T09:38:39.094Z,89.83
2023-02-05T09:40:52.806Z,89.36
2023-02-05T09:42:28.374Z,89.75
2023-02-05T09:43:31.800Z,89.09
2023-02-05T09:44:34.920Z,88.42
2023-02-05T09:46:10.252Z,88.48
2023-02-05T09:47:13.536Z,87.52
2023-02-05T09:48:17.034Z,87.40
2023-02-05T09:49:51.931Z,87.68
2023-02-05T09:50:56.361Z,87.40
2023-02-05T09:52:00.653Z,86.95
2023-02-05T09:53:35.722Z,87.48
2023-02-05T09:54:38.774Z,87.61
2023-02-05T09:55:42.193Z,87.02
2023-02-05T09:57:20.230Z,87.33
2023-02-05T09:58:23.476Z,87.54
2023-02-05T09:59:26.695Z,87.42
2023-02-05T10:00:17.640Z,87.81
2023-02-05T10:01:20.780Z,87.67
2023-02-05T10:02:24.317Z,87.71
2023-02-05T10:03:59.338Z,87.63
2023-02-05T10:05:02.683Z,86.79
2023-02-05T10:06:05.826Z,86.39
2023-02-05T10:07:41.173Z,86.25
2023-02-05T10:08:44.268Z,85.89
2023-02-05T10:09:47.755Z,86.21
2023-02-05T10:11:22.794Z,85.80
2023-02-05T10:12:25.839Z,84.75
2023-02-05T10:13:28.779Z,85.06
2023-02-05T10:15:03.965Z,85.41
2023-02-05T10:16:07.160Z,84.05
2023-02-05T10:17:10.087Z,84.02
2023-02-05T10:18:45.118Z,84.42
2023-02-05T10:19:48.079Z,84.98
2023-02-05T10:20:53.648Z,84.43
2023-02-05T10:22:28.714Z,84.06
2023-02-05T10:23:31.893Z,84.22
2023-02-05T10:24:35.289Z,84.40
2023-02-05T10:26:10.532Z,83.34
2023-02-05T10:27:13.570Z,83.41
2023-02-05T10:28:16.768Z,83.79
2023-02-05T10:29:51.693Z,82.89
2023-02-05T10:30:54.908Z,83.08
2023-02-05T10:31:58.804Z,83.13
2023-02-05T10:33:33.995Z,83.52
2023-02-05T10:34:37.171Z,83.60
2023-02-05T10:35:41.151Z,83.43
2023-02-05T10:37:16.046Z,83.24
2023-02-05T10:38:19.090Z,83.21
2023-02-05T10:39:22.405Z,82.87
2023-02-05T10:40:59.393Z,83.22
2023-02-05T10:42:03.476Z,83.15
2023-02-05T10:43:06.933Z,83.45
2023-02-05T10:44:42.224Z,82.73
2023-02-05T10:45:45.626Z,82.62
2023-02-05T10:46:49.323Z,83.02
2023-02-05T10:48:24.025Z,82.70
2023-02-05T10:49:27.022Z,82.89
2023-02-05T10:50:29.995Z,83.20
2023-02-05T10:52:05.771Z,83.88
2023-02-05T10:53:08.701Z,84.62
2023-02-05T10:54:12.076Z,85.39
2023-02-05T10:55:47.354Z,86.37
2023-02-05T10:56:50.577Z,86.86
2023-02-05T10:57:53.694Z,87.44
2023-02-05T10:59:29.213Z,88.25
2023-02-05T11:00:18.269Z,88.22
2023-02-05T11:01:22.519Z,88.83
2023-02-05T11:02:26.020Z,88.76
2023-02-05T11:04:01.256Z,89.50
2023-02-05T11:05:04.171Z,89.50
2023-02-05T11:06:07.309Z,89.85
2023-02-05T11:07:42.245Z,90.13
2023-02-05T11:08:45.252Z,90.27
2023-02-05T11:09:48.287Z,90.94
2023-02-05T11:11:23.917Z,91.04
2023-02-05T11:12:28.076Z,91.22
2023-02-05T11:13:31.410Z,91.67
2023-02-05T11:15:06.461Z,91.70
2023-02-05T11:16:09.919Z,92.13
2023-02-05T11:17:13.469Z,92.33
2023-02-05T11:18:49.225Z,92.29
2023-02-05T11:19:55.319Z,93.15
2023-02-05T11:20:58.467Z,92.65
2023-02-05T11:22:33.355Z,91.70
2023-02-05T11:23:36.751Z,91.75
2023-02-05T11:24:39.689Z,92.01
2023-02-05T11:26:17.431Z,91.64
2023-02-05T11:27:20.468Z,91.58
2023-02-05T11:28:23.751Z,91.55
2023-02-05T11:29:58.852Z,90.94
2023-02-05T11:31:33.268Z,90.34
2023-02-05T11:32:37.237Z,89.64
2023-02-05T11:34:12.351Z,90.37
2023-02-05T11:35:15.639Z,90.31
2023-02-05T11:36:18.739Z,89.97
2023-02-05T11:37:53.908Z,90.00
2023-02-05T11:38:58.456Z,89.84
2023-02-05T11:40:01.378Z,89.24
2023-02-05T11:41:36.248Z,89.08
2023-02-05T11:42:39.370Z,89.39
2023-02-05T11:43:42.236Z,89.24
2023-02-05T11:45:17.457Z,88.31
2023-02-05T11:46:20.525Z,88.36
2023-02-05T11:47:24.149Z,87.51
2023-02-05T11:48:59.515Z,87.40
2023-02-05T11:50:02.477Z,87.25
2023-02-05T11:51:05.667Z,87.09
2023-02-05T11:52:40.740Z,87.12
2023-02-05T11:53:43.746Z,86.52
2023-02-05T11:54:46.747Z,86.60
2023-02-05T11:56:23.686Z,86.74
2023-02-05T11:57:27.903Z,87.14
2023-02-05T11:58:42.388Z,86.70
2023-02-05T12:00:17.933Z,86.54
2023-02-05T12:01:21.364Z,87.27
2023-02-05T12:02:27.624Z,87.20
2023-02-05T12:04:02.881Z,87.29
2023-02-05T12:05:05.969Z,87.69
2023-02-05T12:06:09.449Z,87.90
2023-02-05T12:07:44.601Z,88.45
2023-02-05T12:08:49.971Z,88.46
2023-02-05T12:09:52.874Z,88.29
2023-02-05T12:11:28.322Z,87.88
2023-02-05T12:12:31.456Z,87.98
2023-02-05T12:13:34.463Z,88.36
2023-02-05T12:15:09.495Z,88.71
2023-02-05T12:16:12.445Z,88.82
2023-02-05T12:17:16.065Z,88.96
2023-02-05T12:18:50.996Z,88.83
2023-02-05T12:19:54.110Z,89.23
2023-02-05T12:20:57.307Z,89.34
2023-02-05T12:22:32.186Z,89.45
2023-02-05T12:23:35.279Z,89.43
2023-02-05T12:24:38.405Z,89.33
2023-02-05T12:26:14.120Z,89.98
2023-02-05T12:27:17.325Z,90.03
2023-02-05T12:28:20.627Z,90.23
2023-02-05T12:29:55.871Z,89.52
2023-02-05T12:30:59.148Z,90.04
2023-02-05T12:32:02.336Z,89.81
2023-02-05T12:33:37.424Z,89.30
2023-02-05T12:34:40.535Z,88.66
2023-02-05T12:35:43.423Z,88.39
2023-02-05T12:37:18.646Z,88.64
2023-02-05T12:38:33.183Z,89.17
2023-02-05T12:39:36.436Z,89.18
2023-02-05T12:41:12.157Z,87.20
2023-02-05T12:42:15.463Z,86.09
2023-02-05T12:43:18.764Z,85.91
2023-02-05T12:44:54.120Z,86.07
2023-02-05T12:45:57.607Z,85.83
2023-02-05T12:47:00.964Z,85.42
2023-02-05T12:48:35.761Z,83.84
2023-02-05T12:49:42.102Z,82.91
2023-02-05T12:50:46.186Z,83.43
2023-02-05T12:52:20.899Z,82.74
2023-02-05T12:53:23.888Z,82.56
2023-02-05T12:54:27.095Z,82.18
2023-02-05T12:56:03.410Z,83.62
2023-02-05T12:57:06.609Z,84.16
2023-02-05T12:58:09.815Z,84.09
2023-02-05T12:59:44.729Z,83.96
2023-02-05T13:00:18.376Z,83.96
2023-02-05T13:01:22.216Z,82.34
2023-02-05T13:02:25.270Z,82.08
2023-02-05T13:04:01.428Z,82.27
2023-02-05T13:05:05.089Z,82.59
2023-02-05T13:06:08.091Z,81.52
2023-02-05T13:07:42.793Z,81.17
2023-02-05T13:08:45.745Z,81.42
2023-02-05T13:09:48.841Z,80.42
2023-02-05T13:11:25.222Z,81.38
2023-02-05T13:12:28.227Z,81.42
2023-02-05T13:13:31.153Z,79.92
2023-02-05T13:15:06.174Z,81.01
2023-02-05T13:16:09.225Z,79.53
2023-02-05T13:17:16.073Z,79.53
2023-02-05T13:18:51.265Z,79.52
2023-02-05T13:19:54.571Z,79.56
2023-02-05T13:20:57.440Z,78.28
2023-02-05T13:22:35.082Z,78.85
2023-02-05T13:23:38.155Z,78.69
2023-02-05T13:24:41.399Z,78.58
2023-02-05T13:26:29.050Z,78.37
2023-02-05T13:27:32.005Z,78.39
2023-02-05T13:28:35.368Z,78.17
2023-02-05T13:30:10.897Z,78.59
2023-02-05T13:31:15.394Z,78.38
2023-02-05T13:32:21.848Z,78.74
2023-02-05T13:33:56.922Z,78.70
2023-02-05T13:35:00.109Z,78.73
2023-02-05T13:36:03.186Z,78.56
2023-02-05T13:37:38.223Z,77.00
2023-02-05T13:38:41.298Z,77.08
2023-02-05T13:39:44.515Z,77.54
2023-02-05T13:41:19.841Z,76.73
2023-02-05T13:42:22.851Z,76.19
2023-02-05T13:43:25.775Z,76.81
2023-02-05T13:45:00.650Z,76.74
2023-02-05T13:46:03.929Z,76.06
2023-02-05T13:47:07.281Z,76.23
2023-02-05T13:48:42.563Z,76.79
2023-02-05T13:49:45.867Z,77.13
2023-02-05T13:50:49.044Z,76.99
2023-02-05T13:52:23.988Z,76.94
2023-02-05T13:53:28.711Z,77.26
2023-02-05T13:54:31.469Z,75.46
2023-02-05T13:56:06.191Z,76.80
2023-02-05T13:57:09.206Z,76.79
2023-02-05T13:58:12.373Z,76.94
2023-02-05T13:59:47.296Z,76.38
2023-02-05T14:00:17.985Z,76.38
2023-02-05T14:01:21.274Z,76.19
2023-02-05T14:02:25.156Z,76.73
2023-02-05T14:04:00.659Z,76.97
2023-02-05T14:05:03.764Z,76.01
2023-02-05T14:06:09.366Z,77.09
2023-02-05T14:07:44.776Z,76.67
2023-02-05T14:08:47.844Z,76.94
2023-02-05T14:09:50.974Z,76.88
2023-02-05T14:11:26.059Z,76.69
2023-02-05T14:12:29.176Z,75.97
2023-02-05T14:13:32.272Z,76.27
2023-02-05T14:15:07.546Z,76.38
2023-02-05T14:16:10.881Z,76.74
2023-02-05T14:17:13.890Z,77.13
2023-02-05T14:18:48.605Z,77.10
2023-02-05T14:19:51.842Z,77.50
2023-02-05T14:20:54.873Z,76.99
2023-02-05T14:22:30.387Z,76.87
2023-02-05T14:23:33.762Z,76.54
2023-02-05T14:24:37.066Z,76.54
2023-02-05T14:26:12.672Z,76.73
2023-02-05T14:27:15.890Z,76.71
2023-02-05T14:28:19.230Z,76.42
2023-02-05T14:29:54.448Z,76.57
2023-02-05T14:30:57.800Z,76.89
2023-02-05T14:32:01.404Z,76.36
2023-02-05T14:33:38.370Z,76.64
2023-02-05T14:34:43.822Z,76.11
2023-02-05T14:35:46.848Z,76.18
2023-02-05T14:37:21.982Z,76.13
2023-02-05T14:38:24.918Z,76.59
2023-02-05T14:39:28.332Z,77.02
2023-02-05T14:41:03.465Z,77.53
2023-02-05T14:42:06.448Z,76.55
2023-02-05T14:43:16.347Z,76.87
2023-02-05T14:44:51.334Z,77.69
2023-02-05T14:45:54.229Z,77.52
2023-02-05T14:46:58.581Z,77.63
2023-02-05T14:48:33.627Z,77.83
2023-02-05T14:49:36.676Z,78.14
2023-02-05T14:50:39.840Z,77.68
2023-02-05T14:52:14.825Z,78.01
2023-02-05T14:53:17.838Z,78.19
2023-02-05T14:54:21.124Z,78.07
2023-02-05T14:55:56.308Z,77.29
2023-02-05T14:56:59.267Z,77.54
2023-02-05T14:58:02.611Z,78.06
2023-02-05T14:59:37.580Z,78.30
2023-02-05T15:00:17.783Z,78.25
2023-02-05T15:01:20.944Z,78.37
2023-02-05T15:02:24.249Z,78.03
2023-02-05T15:03:59.505Z,77.77
2023-02-05T15:05:02.437Z,78.38
2023-02-05T15:06:05.317Z,77.81
2023-02-05T15:07:40.630Z,77.59
2023-02-05T15:08:43.649Z,78.72
2023-02-05T15:09:46.790Z,78.55
2023-02-05T15:11:22.023Z,78.63
2023-02-05T15:12:25.117Z,77.88
2023-02-05T15:13:28.170Z,77.54
2023-02-05T15:15:03.100Z,78.03
2023-02-05T15:16:07.875Z,77.18
2023-02-05T15:17:11.224Z,75.48
2023-02-05T15:18:46.288Z,76.19
2023-02-05T15:19:49.318Z,75.84
2023-02-05T15:20:52.117Z,75.84
2023-02-05T15:22:27.242Z,75.52
2023-02-05T15:23:30.144Z,75.47
2023-02-05T15:24:33.279Z,75.47
2023-02-05T15:26:08.398Z,75.04
2023-02-05T15:27:11.588Z,74.86
2023-02-05T15:28:14.862Z,75.36
2023-02-05T15:29:50.213Z,75.28
2023-02-05T15:30:55.414Z,74.97
2023-02-05T15:31:58.929Z,75.52
2023-02-05T15:33:33.841Z,75.95
2023-02-05T15:34:37.045Z,76.31
2023-02-05T15:35:40.541Z,76.37
2023-02-05T15:37:15.373Z,75.53
2023-02-05T15:38:18.529Z,75.91
2023-02-05T15:39:21.749Z,75.88
2023-02-05T15:40:56.722Z,76.65
2023-02-05T15:41:59.696Z,76.49
2023-02-05T15:43:02.604Z,76.08
2023-02-05T15:44:37.978Z,75.85
2023-02-05T15:45:41.749Z,76.51
2023-02-05T15:46:44.913Z,76.60
2023-02-05T15:48:19.944Z,76.06